Time;durP1;ratioP1;P1;durP2;ratioP2;P2;SDS_P1;SDS_P2;PMS_P1;PMS_P2;Temp;Humidity;BMP_temperature;BMP_pressure;BME280_temperature;BME280_humidity;BME280_pressure;Samples;Min_cycle;Max_cycle;Signal;HPM_P1;HPM_P2
2022/07/21 00:00:16;;;;;;;10.25;9.07;;;22.30;99.90;;;;;;5103943;28;20196;-84
2022/07/21 00:02:44;;;;;;;10.80;9.75;;;22.40;99.90;;;;;;5116064;28;20204;-85
2022/07/21 00:05:11;;;;;;;10.95;9.65;;;22.10;99.90;;;;;;5103386;28;20216;-85
2022/07/21 00:07:40;;;;;;;11.77;10.57;;;22.20;99.90;;;;;;5118906;28;20200;-85
2022/07/21 00:10:08;;;;;;;12.80;10.57;;;22.30;99.90;;;;;;5093777;28;20197;-85
2022/07/21 00:12:36;;;;;;;11.77;10.68;;;21.90;99.90;;;;;;5113178;28;20208;-84
2022/07/21 00:15:05;;;;;;;12.63;11.32;;;21.80;99.90;;;;;;5099310;28;20221;-85
2022/07/21 00:17:33;;;;;;;12.50;11.20;;;21.40;99.90;;;;;;5113693;28;20204;-85
2022/07/21 00:20:01;;;;;;;11.18;9.95;;;21.30;99.90;;;;;;5118184;28;20680;-84
2022/07/21 00:22:28;;;;;;;11.68;10.48;;;21.10;99.90;;;;;;5109864;28;20660;-85
2022/07/21 00:24:58;;;;;;;10.57;9.48;;;21.20;99.90;;;;;;5118787;28;20220;-85
2022/07/21 00:27:25;;;;;;;11.48;10.27;;;21.30;99.90;;;;;;5101444;28;20196;-85
2022/07/21 00:29:53;;;;;;;11.40;10.20;;;21.30;99.90;;;;;;5120468;28;20193;-85
2022/07/21 00:32:20;;;;;;;13.00;11.80;;;21.50;99.90;;;;;;5101021;28;20212;-85
2022/07/21 00:34:48;;;;;;;13.45;11.77;;;21.20;99.90;;;;;;5095940;28;20209;-85
2022/07/21 00:37:16;;;;;;;12.65;11.35;;;20.90;99.90;;;;;;5101633;28;20195;-86
2022/07/21 00:39:43;;;;;;;12.95;11.55;;;21.10;99.90;;;;;;5105612;28;20198;-84
2022/07/21 00:42:22;;;;;;;14.52;12.00;;;21.10;99.90;;;;;;5101239;28;20185;-85
2022/07/21 00:44:50;;;;;;;13.88;12.32;;;21.30;99.90;;;;;;5101685;28;20231;-84
2022/07/21 00:47:20;;;;;;;13.05;11.70;;;21.20;99.90;;;;;;5107060;28;20209;-85
2022/07/21 00:49:48;;;;;;;13.43;11.68;;;20.70;99.90;;;;;;5118663;27;20205;-85
2022/07/21 00:52:16;;;;;;;13.38;12.02;;;21.00;99.90;;;;;;5101080;28;20219;-84
2022/07/21 00:54:44;;;;;;;12.73;11.25;;;21.10;99.90;;;;;;5122396;28;20212;-85
2022/07/21 00:57:13;;;;;;;12.25;11.15;;;21.10;99.90;;;;;;5104927;28;20201;-85
2022/07/21 00:59:42;;;;;;;12.80;11.57;;;21.20;99.90;;;;;;5104478;28;20197;-84
2022/07/21 01:02:10;;;;;;;12.32;11.00;;;21.30;99.90;;;;;;5105568;28;20282;-84
2022/07/21 01:04:38;;;;;;;16.00;12.93;;;21.20;99.90;;;;;;5109577;28;20224;-84
2022/07/21 01:07:06;;;;;;;14.05;12.65;;;20.60;99.90;;;;;;5106053;28;20196;-84
2022/07/21 01:09:36;;;;;;;14.45;12.95;;;20.60;99.90;;;;;;5106772;28;20191;-85
2022/07/21 01:12:05;;;;;;;16.60;14.90;;;20.60;99.90;;;;;;5121445;28;20199;-86
2022/07/21 01:14:33;;;;;;;14.07;12.60;;;20.60;99.90;;;;;;5104516;28;20220;-85
2022/07/21 01:17:03;;;;;;;12.73;10.80;;;21.10;99.90;;;;;;5101672;28;20197;-86
2022/07/21 01:19:31;;;;;;;13.00;11.70;;;21.20;99.90;;;;;;5121120;27;20206;-84
2022/07/21 01:22:00;;;;;;;13.32;11.50;;;21.30;99.90;;;;;;5103462;28;20200;-85
2022/07/21 01:24:28;;;;;;;12.60;10.60;;;21.20;99.90;;;;;;5105828;27;20224;-85
2022/07/21 01:26:55;;;;;;;10.52;9.43;;;20.70;99.90;;;;;;5103779;28;20196;-84
2022/07/21 01:29:24;;;;;;;12.20;10.65;;;20.90;99.90;;;;;;5104468;27;20200;-84
2022/07/21 01:31:52;;;;;;;12.50;11.20;;;20.90;99.90;;;;;;5107599;28;20215;-85
2022/07/21 01:34:19;;;;;;;11.93;10.25;;;20.90;99.90;;;;;;5090985;28;20227;-83
2022/07/21 01:36:47;;;;;;;12.13;10.93;;;21.00;99.90;;;;;;5097129;28;20208;-85
2022/07/21 01:42:16;;;;;;;12.70;11.35;;;20.80;99.90;;;;;;5100937;28;20215;-85
2022/07/21 01:44:44;;;;;;;11.32;10.20;;;20.80;99.90;;;;;;5098254;28;20228;-85
2022/07/21 01:47:11;;;;;;;12.07;10.85;;;20.90;99.90;;;;;;5090353;28;20233;-85
2022/07/21 01:49:39;;;;;;;11.60;10.40;;;21.20;99.90;;;;;;5091202;28;20211;-85
2022/07/21 01:52:07;;;;;;;11.60;10.50;;;21.60;99.90;;;;;;5090731;28;20200;-85
2022/07/21 01:54:38;;;;;;;11.50;10.30;;;21.50;99.90;;;;;;5111813;28;20224;-85
2022/07/21 01:57:05;;;;;;;12.95;11.60;;;21.60;99.90;;;;;;5103465;28;20197;-84
2022/07/21 01:59:33;;;;;;;12.68;11.38;;;21.10;99.90;;;;;;5108028;28;20200;-84
2022/07/21 02:02:00;;;;;;;14.90;11.38;;;20.70;99.90;;;;;;5096101;28;20207;-84
2022/07/21 02:04:28;;;;;;;12.50;11.30;;;21.00;99.90;;;;;;5090581;27;20222;-84
2022/07/21 02:06:56;;;;;;;13.38;11.50;;;20.90;99.90;;;;;;5085785;28;20677;-84
2022/07/21 02:09:24;;;;;;;15.35;11.63;;;20.80;99.90;;;;;;5092013;27;20209;-85
2022/07/21 02:11:53;;;;;;;13.02;11.73;;;20.80;99.90;;;;;;5095071;28;20192;-84
2022/07/21 02:14:21;;;;;;;13.40;11.95;;;20.60;99.90;;;;;;5088503;28;20213;-83
2022/07/21 02:16:48;;;;;;;13.32;11.80;;;21.00;99.90;;;;;;5095564;28;20203;-83
2022/07/21 02:19:16;;;;;;;13.88;12.13;;;20.50;99.90;;;;;;5093109;28;20196;-82
2022/07/21 02:21:43;;;;;;;14.10;12.65;;;20.50;99.90;;;;;;5098240;28;20567;-82
2022/07/21 02:24:11;;;;;;;11.85;10.60;;;20.60;99.90;;;;;;5126383;27;20212;-82
2022/07/21 02:26:38;;;;;;;13.63;12.18;;;20.50;99.90;;;;;;5130342;27;20184;-82
2022/07/21 02:29:07;;;;;;;12.48;10.40;;;20.50;99.90;;;;;;5113936;28;20206;-83
2022/07/21 02:31:35;;;;;;;12.65;10.70;;;20.60;99.90;;;;;;5110728;28;20203;-82
2022/07/21 02:34:03;;;;;;;13.60;11.23;;;20.50;99.90;;;;;;5119231;28;20242;-82
2022/07/21 02:36:30;;;;;;;12.45;10.73;;;20.50;99.90;;;;;;5092458;28;20672;-82
2022/07/21 02:38:59;;;;;;;12.70;11.30;;;20.20;99.90;;;;;;5088319;28;20199;-82
2022/07/21 02:41:26;;;;;;;11.20;10.10;;;20.30;99.90;;;;;;5089493;28;20275;-82
2022/07/21 02:43:54;;;;;;;12.75;10.07;;;20.40;99.90;;;;;;5087196;28;20708;-82
2022/07/21 02:46:22;;;;;;;11.43;10.13;;;20.40;99.90;;;;;;5095799;28;20200;-83
2022/07/21 02:48:50;;;;;;;11.15;9.95;;;20.60;99.90;;;;;;5108484;28;20203;-82
2022/07/21 02:51:17;;;;;;;10.25;8.63;;;20.20;99.90;;;;;;5088964;28;20207;-82
2022/07/21 02:53:45;;;;;;;8.52;7.70;;;20.50;99.90;;;;;;5090900;28;20220;-82
2022/07/21 02:56:12;;;;;;;8.43;7.65;;;20.70;99.90;;;;;;5090282;28;20204;-82
2022/07/21 02:58:40;;;;;;;8.18;7.30;;;20.60;99.90;;;;;;5090648;28;20204;-83
2022/07/21 03:01:08;;;;;;;7.55;6.82;;;21.10;99.90;;;;;;5085408;28;20208;-83
2022/07/21 03:03:38;;;;;;;7.20;6.50;;;21.20;99.90;;;;;;5089700;28;20208;-82
2022/07/21 03:06:06;;;;;;;7.65;6.93;;;21.00;99.90;;;;;;5102036;27;20201;-82
2022/07/21 03:08:34;;;;;;;9.13;7.40;;;20.90;99.90;;;;;;5111221;27;20200;-82
2022/07/21 03:11:02;;;;;;;7.38;6.68;;;20.40;99.90;;;;;;5096109;28;20212;-82
2022/07/21 03:13:30;;;;;;;7.38;6.68;;;21.00;99.90;;;;;;5093446;28;20232;-82
2022/07/21 03:15:58;;;;;;;7.95;6.85;;;20.60;99.90;;;;;;5107178;28;20207;-83
2022/07/21 03:18:25;;;;;;;7.65;6.50;;;20.50;99.90;;;;;;5112576;28;20192;-82
2022/07/21 03:20:54;;;;;;;7.68;6.97;;;20.30;99.90;;;;;;5104105;28;20203;-82
2022/07/21 03:23:22;;;;;;;8.95;7.45;;;20.20;99.90;;;;;;5084640;28;20208;-82
2022/07/21 03:25:49;;;;;;;8.43;6.50;;;20.10;99.90;;;;;;5105746;28;20476;-82
2022/07/21 03:28:18;;;;;;;7.45;6.75;;;20.30;99.90;;;;;;5088824;28;20212;-82
2022/07/21 03:30:45;;;;;;;8.45;7.55;;;19.90;99.90;;;;;;5101536;28;20193;-82
2022/07/21 03:33:13;;;;;;;12.13;8.38;;;19.80;99.90;;;;;;5094058;28;20455;-82
2022/07/21 03:35:41;;;;;;;9.38;8.50;;;20.00;99.90;;;;;;5093965;28;20216;-83
2022/07/21 03:38:10;;;;;;;7.72;7.03;;;19.70;99.90;;;;;;5095112;28;20196;-82
2022/07/21 03:40:39;;;;;;;8.50;7.70;;;20.00;99.90;;;;;;5090391;28;20200;-83
2022/07/21 03:43:08;;;;;;;8.63;7.65;;;20.20;99.90;;;;;;5111379;28;20211;-82
2022/07/21 03:45:37;;;;;;;10.07;8.10;;;20.00;99.90;;;;;;5113611;28;20220;-82
2022/07/21 03:48:06;;;;;;;9.15;8.25;;;20.10;99.90;;;;;;5110913;28;20197;-82
2022/07/21 03:50:35;;;;;;;9.27;8.38;;;20.00;99.90;;;;;;5092277;28;20196;-83
2022/07/21 03:53:03;;;;;;;8.70;7.90;;;20.10;99.90;;;;;;5092405;28;20203;-82
2022/07/21 03:55:32;;;;;;;10.13;9.05;;;20.00;99.90;;;;;;5106472;28;20229;-82
2022/07/21 03:58:02;;;;;;;9.30;8.18;;;19.80;99.90;;;;;;5082390;28;20193;-82
2022/07/21 04:00:31;;;;;;;9.27;8.48;;;20.10;99.90;;;;;;5089878;28;20216;-82
2022/07/21 04:02:59;;;;;;;10.35;9.35;;;20.00;99.90;;;;;;5091103;28;20201;-82
2022/07/21 04:05:28;;;;;;;8.68;7.88;;;19.90;99.90;;;;;;5101955;28;20212;-82
2022/07/21 04:07:57;;;;;;;8.48;7.68;;;19.90;99.90;;;;;;5094033;28;20192;-82
2022/07/21 04:10:27;;;;;;;13.93;9.80;;;20.40;99.90;;;;;;5092284;28;20573;-82
2022/07/21 04:12:58;;;;;;;9.98;8.88;;;20.50;99.90;;;;;;5094616;28;20192;-83
2022/07/21 04:15:25;;;;;;;8.15;7.40;;;20.40;99.90;;;;;;5107186;28;20223;-83
2022/07/21 04:17:53;;;;;;;8.25;7.45;;;20.40;99.90;;;;;;5093781;28;20657;-82
2022/07/21 04:20:25;;;;;;;8.77;7.97;;;20.80;99.90;;;;;;5097828;28;20207;-83
2022/07/21 04:22:53;;;;;;;8.52;7.63;;;20.60;99.90;;;;;;5097114;28;20211;-83
2022/07/21 04:25:21;;;;;;;9.60;8.60;;;20.20;99.90;;;;;;5105538;28;20226;-83
2022/07/21 04:27:50;;;;;;;7.30;6.70;;;20.00;99.90;;;;;;5089583;28;20188;-82
2022/07/21 04:30:20;;;;;;;8.48;6.65;;;20.40;99.90;;;;;;5096522;28;20200;-83
2022/07/21 04:32:48;;;;;;;7.85;6.85;;;21.00;99.90;;;;;;5088044;28;20200;-83
2022/07/21 04:35:16;;;;;;;7.78;6.53;;;21.20;99.90;;;;;;5094191;28;20213;-83
2022/07/21 04:37:48;;;;;;;9.02;7.78;;;21.60;99.90;;;;;;5095321;28;20192;-83
2022/07/21 04:40:16;;;;;;;8.90;7.90;;;21.50;99.90;;;;;;5113042;28;20193;-83
2022/07/21 04:42:45;;;;;;;8.70;7.82;;;21.40;99.90;;;;;;5093331;28;20209;-83
2022/07/21 04:45:14;;;;;;;9.27;8.40;;;21.30;99.90;;;;;;5106796;28;20216;-83
2022/07/21 04:47:49;;;;;;;8.90;8.05;;;20.70;99.90;;;;;;5091001;28;20193;-83
2022/07/21 04:50:21;;;;;;;9.63;8.63;;;20.60;99.90;;;;;;5093054;28;20199;-82
2022/07/21 04:52:50;;;;;;;10.55;9.43;;;20.60;99.90;;;;;;5105918;28;20216;-84
2022/07/21 04:55:18;;;;;;;10.32;9.02;;;20.80;99.90;;;;;;5097489;28;20223;-83
2022/07/21 04:57:47;;;;;;;11.27;10.13;;;20.70;99.90;;;;;;5092786;28;20197;-84
2022/07/21 05:00:17;;;;;;;11.48;10.38;;;20.20;99.90;;;;;;5113500;28;20196;-84
2022/07/21 05:02:47;;;;;;;14.23;11.00;;;20.10;99.90;;;;;;5115360;28;20200;-84
2022/07/21 05:05:15;;;;;;;10.27;9.18;;;20.10;99.90;;;;;;5110023;28;20212;-84
2022/07/21 05:07:43;;;;;;;12.35;9.95;;;20.70;99.90;;;;;;5110188;28;20204;-84
2022/07/21 05:10:13;;;;;;;13.82;12.23;;;20.80;99.90;;;;;;5095741;28;20224;-85
2022/07/21 05:12:41;;;;;;;13.45;12.07;;;20.50;99.90;;;;;;5090433;28;20205;-84
2022/07/21 05:15:11;;;;;;;16.70;13.38;;;20.50;99.90;;;;;;5091971;28;20216;-84
2022/07/21 05:17:38;;;;;;;16.27;13.57;;;20.10;99.90;;;;;;5108218;28;20196;-85
2022/07/21 05:20:22;;;;;;;15.93;14.32;;;20.30;99.90;;;;;;5097185;28;20199;-83
2022/07/21 05:22:50;;;;;;;16.55;14.73;;;20.10;99.90;;;;;;5094853;28;20196;-83
2022/07/21 05:25:18;;;;;;;19.60;15.77;;;20.10;99.90;;;;;;5106743;28;20221;-84
2022/07/21 05:27:56;;;;;;;16.92;15.20;;;20.10;99.90;;;;;;5096955;28;20201;-84
2022/07/21 05:30:25;;;;;;;16.40;14.75;;;20.10;99.90;;;;;;5112026;28;20203;-85
2022/07/21 05:32:53;;;;;;;19.60;17.23;;;20.50;99.90;;;;;;5097432;28;20200;-84
2022/07/21 05:35:23;;;;;;;20.20;18.10;;;19.90;99.90;;;;;;5113947;28;20216;-86
2022/07/21 05:37:51;;;;;;;20.35;18.25;;;19.70;99.90;;;;;;5087586;28;20216;-84
2022/07/21 05:40:18;;;;;;;20.60;18.40;;;19.80;99.90;;;;;;5107968;28;20184;-84
2022/07/21 05:42:47;;;;;;;18.70;16.70;;;19.80;99.90;;;;;;5112423;28;20203;-85
2022/07/21 05:45:15;;;;;;;20.42;17.52;;;19.90;99.90;;;;;;5091241;28;20221;-85
2022/07/21 05:47:42;;;;;;;19.45;17.35;;;20.00;99.90;;;;;;5098833;28;20207;-83
2022/07/21 05:50:12;;;;;;;22.95;19.17;;;19.80;99.90;;;;;;5104869;28;20215;-83
2022/07/21 05:52:41;;;;;;;24.50;20.70;;;19.60;99.90;;;;;;5097147;28;20204;-84
2022/07/21 05:55:09;;;;;;;23.05;19.60;;;19.50;99.90;;;;;;5102580;28;20223;-84
2022/07/21 05:57:37;;;;;;;18.63;16.65;;;19.60;99.90;;;;;;5097952;28;20207;-84
2022/07/21 06:00:06;;;;;;;19.58;17.58;;;19.90;99.90;;;;;;5094439;28;20212;-84
2022/07/21 06:02:36;;;;;;;19.02;17.00;;;20.00;99.90;;;;;;5119310;28;20199;-85
2022/07/21 06:05:05;;;;;;;21.02;18.33;;;19.80;99.90;;;;;;5094147;28;20219;-84
2022/07/21 06:07:35;;;;;;;21.23;18.45;;;19.70;99.90;;;;;;5088460;28;20669;-84
2022/07/21 06:10:06;;;;;;;22.55;19.00;;;19.80;99.90;;;;;;5089072;28;20197;-83
2022/07/21 06:12:38;;;;;;;18.48;16.48;;;20.10;99.90;;;;;;5081817;28;20204;-85
2022/07/21 06:15:07;;;;;;;19.48;17.48;;;20.30;99.90;;;;;;5095217;28;20223;-84
2022/07/21 06:17:40;;;;;;;18.77;16.88;;;19.90;99.90;;;;;;5089122;28;20209;-85
2022/07/21 06:20:09;;;;;;;16.23;14.02;;;20.20;99.90;;;;;;5104084;28;20188;-85
2022/07/21 06:22:40;;;;;;;18.48;15.52;;;20.50;99.90;;;;;;5109847;28;20204;-84
2022/07/21 06:25:09;;;;;;;18.98;17.08;;;20.90;99.90;;;;;;5110399;28;20686;-84
2022/07/21 06:27:37;;;;;;;18.65;16.67;;;20.80;99.90;;;;;;5089803;28;20573;-84
2022/07/21 06:30:06;;;;;;;16.75;15.15;;;20.60;99.90;;;;;;5089767;28;20219;-85
2022/07/21 06:32:34;;;;;;;18.60;16.77;;;20.60;99.90;;;;;;5109089;28;20184;-83
2022/07/21 06:35:01;;;;;;;19.27;17.38;;;20.30;99.90;;;;;;5089163;28;20224;-84
2022/07/21 06:37:30;;;;;;;44.88;24.25;;;20.10;99.90;;;;;;5091939;28;20204;-83
2022/07/21 06:39:59;;;;;;;19.20;17.25;;;20.40;99.90;;;;;;5095147;28;20200;-85
2022/07/21 06:42:28;;;;;;;18.02;16.25;;;20.20;99.90;;;;;;5088318;28;20212;-83
2022/07/21 06:44:55;;;;;;;19.23;17.05;;;20.10;99.90;;;;;;5097382;28;20212;-84
2022/07/21 06:47:24;;;;;;;18.52;15.35;;;20.30;99.90;;;;;;5102547;28;20574;-84
2022/07/21 06:49:57;;;;;;;17.40;15.70;;;20.70;99.90;;;;;;5092675;28;20193;-84
2022/07/21 06:52:25;;;;;;;17.38;15.68;;;20.70;99.90;;;;;;5084652;28;20193;-84
2022/07/21 06:54:53;;;;;;;17.90;15.70;;;20.50;99.90;;;;;;5093229;28;20235;-84
2022/07/21 06:57:22;;;;;;;17.77;15.98;;;20.30;99.90;;;;;;5107652;28;20212;-84
2022/07/21 06:59:54;;;;;;;17.50;15.15;;;20.20;99.90;;;;;;5095629;28;20205;-82
2022/07/21 07:02:22;;;;;;;16.58;14.80;;;20.40;99.90;;;;;;5097315;28;20193;-84
2022/07/21 07:04:49;;;;;;;14.98;12.85;;;20.40;99.90;;;;;;5101833;28;20224;-84
2022/07/21 07:07:18;;;;;;;14.15;12.52;;;20.50;99.90;;;;;;5116934;28;20211;-85
2022/07/21 07:09:45;;;;;;;12.95;11.65;;;21.00;99.90;;;;;;5109820;28;20200;-84
2022/07/21 07:12:13;;;;;;;12.77;11.57;;;21.30;99.90;;;;;;5110429;28;20199;-85
2022/07/21 07:14:45;;;;;;;13.40;10.88;;;21.00;99.90;;;;;;5091624;28;20227;-84
2022/07/21 07:17:17;;;;;;;12.55;11.35;;;21.10;99.90;;;;;;5094623;28;20204;-84
2022/07/21 07:19:44;;;;;;;13.82;12.18;;;21.00;99.90;;;;;;5105751;28;20211;-85
2022/07/21 07:22:12;;;;;;;12.40;11.15;;;20.90;99.90;;;;;;5087345;28;20200;-87
2022/07/21 07:24:40;;;;;;;11.85;10.75;;;20.90;99.90;;;;;;5105001;28;20223;-87
2022/07/21 07:27:07;;;;;;;12.40;11.20;;;20.70;99.90;;;;;;5131230;28;20196;-87
2022/07/21 07:29:35;;;;;;;14.05;11.05;;;20.80;99.90;;;;;;5128519;28;20189;-87
2022/07/21 07:32:03;;;;;;;11.32;10.27;;;20.60;99.90;;;;;;5087110;28;20201;-87
2022/07/21 07:34:31;;;;;;;12.13;10.85;;;20.70;99.90;;;;;;5082453;28;20220;-87
2022/07/21 07:36:59;;;;;;;11.60;10.50;;;20.70;99.90;;;;;;5102915;28;20213;-87
2022/07/21 07:39:27;;;;;;;11.60;10.45;;;20.80;99.90;;;;;;5093209;28;20192;-86
2022/07/21 07:41:58;;;;;;;11.70;10.60;;;20.90;99.90;;;;;;5081905;28;20197;-86
2022/07/21 07:44:25;;;;;;;10.90;9.68;;;21.00;99.90;;;;;;5112553;28;20246;-86
2022/07/21 07:46:53;;;;;;;10.90;9.80;;;21.10;99.90;;;;;;5093458;28;20541;-86
2022/07/21 07:49:20;;;;;;;10.75;9.68;;;21.20;99.90;;;;;;5104823;28;20194;-88
2022/07/21 07:51:49;;;;;;;9.75;8.80;;;21.30;99.90;;;;;;5086378;28;20573;-87
2022/07/21 07:54:17;;;;;;;10.52;9.45;;;21.40;99.90;;;;;;5100498;28;20220;-87
2022/07/21 07:57:00;;;;;;;10.05;9.15;;;21.10;99.90;;;;;;5062979;28;20482;-88
2022/07/21 07:59:27;;;;;;;11.02;9.65;;;21.20;99.90;;;;;;5061443;28;20211;-89
2022/07/21 08:02:08;;;;;;;9.98;9.02;;;21.20;99.90;;;;;;5079189;28;20210;-88
2022/07/21 08:04:36;;;;;;;8.25;7.45;;;21.50;99.90;;;;;;5081848;28;20221;-88
2022/07/21 08:07:05;;;;;;;10.00;8.23;;;21.40;99.90;;;;;;5069907;28;20206;-88
2022/07/21 08:09:33;;;;;;;9.75;8.75;;;21.30;99.90;;;;;;5068671;28;20201;-88
2022/07/21 08:12:00;;;;;;;10.73;9.73;;;21.30;99.90;;;;;;5086658;28;20204;-88
2022/07/21 08:14:28;;;;;;;9.45;8.45;;;21.30;99.90;;;;;;5073089;28;20209;-88
2022/07/21 08:17:17;;;;;;;13.32;9.88;;;21.10;99.90;;;;;;5086447;28;20229;-87
2022/07/21 08:19:45;;;;;;;10.68;9.60;;;21.00;99.90;;;;;;5069235;28;20208;-88
2022/07/21 08:22:14;;;;;;;10.95;9.30;;;21.00;99.90;;;;;;5075588;28;20193;-87
2022/07/21 08:24:42;;;;;;;11.07;10.13;;;21.40;99.90;;;;;;5068716;28;20221;-88
2022/07/21 08:27:23;;;;;;;11.75;10.55;;;21.40;99.90;;;;;;5065899;28;20678;-88
2022/07/21 08:29:52;;;;;;;11.43;10.23;;;21.40;99.90;;;;;;5074532;28;20203;-87
2022/07/21 08:32:20;;;;;;;11.63;10.40;;;21.50;99.90;;;;;;5081780;28;20226;-85
2022/07/21 08:34:48;;;;;;;12.98;10.32;;;21.40;99.90;;;;;;5070482;28;20588;-84
2022/07/21 08:37:19;;;;;;;10.90;9.82;;;21.20;99.90;;;;;;5069698;28;20209;-81
2022/07/21 08:39:47;;;;;;;10.20;9.10;;;21.80;99.90;;;;;;5070339;28;20197;-82
2022/07/21 08:42:16;;;;;;;10.60;9.70;;;21.80;99.90;;;;;;5082468;28;20204;-83
2022/07/21 08:44:43;;;;;;;10.90;9.98;;;21.70;99.90;;;;;;5064716;28;20613;-86
2022/07/21 08:47:11;;;;;;;10.70;9.60;;;21.70;99.90;;;;;;5076390;28;20212;-83
2022/07/21 08:49:51;;;;;;;13.63;10.60;;;21.60;99.90;;;;;;5066405;28;20202;-84
2022/07/21 08:52:20;;;;;;;13.80;10.20;;;21.50;99.90;;;;;;5087093;28;20203;-85
2022/07/21 08:54:57;;;;;;;11.95;10.00;;;21.80;99.90;;;;;;5077031;28;20225;-85
2022/07/21 08:57:25;;;;;;;9.63;8.80;;;21.70;99.90;;;;;;5084821;28;20228;-86
2022/07/21 08:59:53;;;;;;;10.43;8.30;;;21.70;99.90;;;;;;5070479;28;20196;-85
2022/07/21 09:02:28;;;;;;;8.27;7.55;;;21.70;99.90;;;;;;5079438;28;20204;-84
2022/07/21 09:04:56;;;;;;;9.07;7.70;;;21.60;99.90;;;;;;5074083;28;20217;-86
2022/07/21 09:07:25;;;;;;;7.97;7.15;;;21.70;99.90;;;;;;5072885;28;20201;-85
2022/07/21 09:09:58;;;;;;;9.23;7.63;;;21.90;99.90;;;;;;5069910;28;20215;-86
2022/07/21 09:12:25;;;;;;;7.40;6.40;;;22.00;99.90;;;;;;5096174;28;20204;-85
2022/07/21 09:14:53;;;;;;;7.78;7.07;;;21.90;99.90;;;;;;5071631;28;20270;-84
2022/07/21 09:17:23;;;;;;;10.27;6.88;;;22.00;99.90;;;;;;5075374;28;20213;-87
2022/07/21 09:19:53;;;;;;;8.05;7.07;;;22.10;99.90;;;;;;5075018;28;20203;-88
2022/07/21 09:22:25;;;;;;;7.57;6.97;;;22.00;99.90;;;;;;5094888;28;20199;-88
2022/07/21 09:25:00;;;;;;;8.77;7.32;;;22.40;99.90;;;;;;5069726;28;20225;-87
2022/07/21 09:27:27;;;;;;;7.50;6.70;;;22.40;99.90;;;;;;5089808;28;20539;-88
2022/07/21 09:29:58;;;;;;;8.55;7.45;;;22.30;99.90;;;;;;5082298;28;20205;-84
2022/07/21 09:32:27;;;;;;;8.05;7.30;;;22.40;99.90;;;;;;5087827;28;20647;-84
2022/07/21 09:35:01;;;;;;;7.97;6.80;;;22.50;99.90;;;;;;5065244;28;20221;-84
2022/07/21 09:37:30;;;;;;;8.07;6.78;;;22.30;99.90;;;;;;5074473;28;20209;-84
2022/07/21 09:40:02;;;;;;;6.95;6.22;;;22.50;99.90;;;;;;5093487;28;20196;-87
2022/07/21 09:42:32;;;;;;;6.68;5.65;;;22.70;99.90;;;;;;5081233;28;20201;-84
2022/07/21 09:45:01;;;;;;;7.82;6.93;;;22.70;99.90;;;;;;5091208;28;20221;-84
2022/07/21 09:47:30;;;;;;;8.88;6.55;;;22.50;99.90;;;;;;5084186;28;20330;-88
2022/07/21 09:49:59;;;;;;;7.78;6.90;;;22.40;99.90;;;;;;5102137;28;20199;-83
2022/07/21 09:52:34;;;;;;;8.90;6.47;;;22.10;99.90;;;;;;5080246;28;20195;-83
2022/07/21 09:55:04;;;;;;;6.65;5.95;;;22.10;99.90;;;;;;5068760;28;20678;-84
2022/07/21 09:57:33;;;;;;;11.00;8.20;;;22.30;99.90;;;;;;5094954;28;20701;-84
2022/07/21 10:00:02;;;;;;;7.82;6.38;;;22.20;99.90;;;;;;5092360;28;20216;-86
2022/07/21 10:02:33;;;;;;;7.05;6.35;;;22.10;99.90;;;;;;5097615;28;20201;-85
2022/07/21 10:05:04;;;;;;;10.38;8.15;;;22.00;99.90;;;;;;5073779;28;20218;-85
2022/07/21 10:07:37;;;;;;;8.52;7.30;;;22.00;99.90;;;;;;5075677;28;20204;-86
2022/07/21 10:10:06;;;;;;;7.85;7.07;;;22.10;99.90;;;;;;5079086;28;20201;-85
2022/07/21 10:12:34;;;;;;;8.70;7.80;;;22.00;99.90;;;;;;5073966;28;20209;-86
2022/07/21 10:15:02;;;;;;;7.95;7.18;;;21.90;99.90;;;;;;5093029;28;20212;-83
2022/07/21 10:17:29;;;;;;;8.25;7.47;;;22.00;99.90;;;;;;5069637;28;20225;-83
2022/07/21 10:20:05;;;;;;;9.98;7.60;;;22.10;99.90;;;;;;5075801;28;20194;-82
2022/07/21 10:22:49;;;;;;;10.35;7.10;;;22.20;99.90;;;;;;5088620;28;20572;-83
2022/07/21 10:25:17;;;;;;;8.65;7.72;;;22.40;99.90;;;;;;5081024;28;20225;-82
2022/07/21 10:28:17;;;;;;;7.95;7.20;;;22.20;99.90;;;;;;5082516;28;20215;-83
2022/07/21 10:30:46;;;;;;;9.25;7.72;;;22.30;99.90;;;;;;5073367;28;20255;-82
2022/07/21 10:34:02;;;;;;;8.52;7.63;;;22.30;99.90;;;;;;5087769;28;20189;-83
2022/07/21 10:36:41;;;;;;;8.95;7.97;;;22.40;99.90;;;;;;5073977;28;20378;-84
2022/07/21 10:39:26;;;;;;;9.13;8.30;;;22.50;99.90;;;;;;5069559;28;20726;-84
2022/07/21 10:41:56;;;;;;;9.07;8.27;;;22.20;99.90;;;;;;5073326;28;20231;-84
2022/07/21 10:44:46;;;;;;;9.02;8.13;;;22.30;99.90;;;;;;5093298;28;20228;-84
2022/07/21 10:47:16;;;;;;;9.93;8.45;;;22.40;99.90;;;;;;5083668;28;20194;-84
2022/07/21 10:49:55;;;;;;;9.40;8.23;;;22.40;99.90;;;;;;5080650;28;20212;-84
2022/07/21 10:52:57;;;;;;;10.82;8.05;;;22.70;99.90;;;;;;5073857;28;20197;-84
2022/07/21 10:55:28;;;;;;;11.32;7.63;;;22.50;99.90;;;;;;5063961;28;20216;-84
2022/07/21 10:58:16;;;;;;;9.55;7.47;;;22.40;99.90;;;;;;5068512;28;20209;-82
2022/07/21 11:00:49;;;;;;;8.50;7.15;;;22.30;99.90;;;;;;5086563;28;20202;-84
2022/07/21 11:03:20;;;;;;;10.38;6.78;;;22.50;99.90;;;;;;5063314;28;20213;-84
2022/07/21 11:06:16;;;;;;;8.05;7.25;;;22.30;99.90;;;;;;5077207;28;20204;-83
2022/07/21 11:08:44;;;;;;;8.02;7.32;;;22.20;99.90;;;;;;5091632;28;20197;-83
2022/07/21 11:11:15;;;;;;;9.23;8.18;;;22.00;99.90;;;;;;5069946;28;20212;-84
2022/07/21 11:14:04;;;;;;;9.63;8.73;;;21.60;99.90;;;;;;5072673;28;20232;-84
2022/07/21 11:17:08;;;;;;;9.00;8.10;;;21.20;99.90;;;;;;5076367;28;20216;-83
2022/07/21 11:19:42;;;;;;;10.73;8.80;;;21.30;99.90;;;;;;5088673;28;20243;-83
2022/07/21 11:25:46;;;;;;;11.02;9.68;;;21.20;99.90;;;;;;5056087;28;20197;-84
2022/07/21 11:28:18;;;;;;;11.32;10.10;;;21.50;99.90;;;;;;5059608;28;20194;-84
2022/07/21 11:30:45;;;;;;;11.18;10.07;;;21.40;99.90;;;;;;5055119;28;20227;-84
2022/07/21 11:33:23;;;;;;;11.02;9.93;;;21.20;99.90;;;;;;5065895;28;20213;-85
2022/07/21 11:35:50;;;;;;;11.25;10.15;;;21.40;99.90;;;;;;5042436;28;20194;-83
2022/07/21 11:38:18;;;;;;;14.02;11.48;;;21.40;99.90;;;;;;5037601;28;20218;-83
2022/07/21 11:40:49;;;;;;;14.13;11.75;;;21.20;99.90;;;;;;5054899;28;20199;-82
2022/07/21 11:43:17;;;;;;;13.20;11.43;;;21.00;99.90;;;;;;5044386;28;20198;-83
2022/07/21 11:45:53;;;;;;;13.35;11.95;;;21.00;99.90;;;;;;5044207;28;20209;-83
2022/07/21 11:48:31;;;;;;;12.65;11.23;;;21.00;99.90;;;;;;5045497;28;20197;-83
2022/07/21 11:51:03;;;;;;;13.88;10.73;;;20.90;99.90;;;;;;5035559;28;20597;-84
2022/07/21 11:53:31;;;;;;;13.55;12.07;;;20.90;99.90;;;;;;5026477;28;20191;-84
2022/07/21 11:56:00;;;;;;;13.55;10.65;;;20.90;99.90;;;;;;5029694;28;20199;-83
2022/07/21 11:58:27;;;;;;;12.80;10.90;;;20.90;99.90;;;;;;5025511;28;20223;-84
2022/07/21 12:01:09;;;;;;;11.65;10.55;;;21.00;99.90;;;;;;5044673;28;20198;-83
2022/07/21 12:03:47;;;;;;;13.40;12.00;;;21.00;99.90;;;;;;5026649;28;20241;-84
2022/07/21 12:06:16;;;;;;;12.48;10.75;;;20.80;99.90;;;;;;5029417;28;20236;-84
2022/07/21 12:08:44;;;;;;;12.40;11.02;;;20.70;99.90;;;;;;5033399;28;20202;-84
2022/07/21 12:11:13;;;;;;;11.73;10.57;;;20.40;99.90;;;;;;5040427;28;20206;-84
2022/07/21 12:13:55;;;;;;;11.27;10.02;;;20.20;99.90;;;;;;5039605;28;20231;-84
2022/07/21 12:16:23;;;;;;;13.30;10.13;;;20.40;99.90;;;;;;5025087;28;20199;-84
2022/07/21 12:19:05;;;;;;;10.85;9.48;;;20.40;99.90;;;;;;5044790;28;20229;-84
2022/07/21 12:21:45;;;;;;;10.07;8.98;;;20.30;99.90;;;;;;5024137;28;20222;-84
2022/07/21 12:24:13;;;;;;;9.13;8.23;;;20.10;99.90;;;;;;5027697;28;20571;-84
2022/07/21 12:26:41;;;;;;;7.75;6.95;;;20.10;99.90;;;;;;5037180;28;20669;-84
2022/07/21 12:29:09;;;;;;;8.00;7.25;;;20.10;99.90;;;;;;5036843;28;20675;-84
2022/07/21 12:31:38;;;;;;;7.28;6.57;;;20.30;99.90;;;;;;5029134;28;20557;-84
2022/07/21 12:34:14;;;;;;;6.95;6.25;;;20.60;99.90;;;;;;5050779;28;20225;-84
2022/07/21 12:36:43;;;;;;;7.43;6.72;;;20.30;99.90;;;;;;5035671;28;20209;-84
2022/07/21 12:42:11;;;;;;;8.43;7.00;;;20.30;99.90;;;;;;5036623;28;20213;-84
2022/07/21 12:44:39;;;;;;;7.47;6.68;;;20.30;99.90;;;;;;5029640;28;20230;-84
2022/07/21 12:47:14;;;;;;;7.63;6.88;;;20.40;99.90;;;;;;5045270;28;20195;-84
2022/07/21 12:49:56;;;;;;;6.72;6.10;;;20.70;99.90;;;;;;5050121;28;20663;-85
2022/07/21 12:52:25;;;;;;;8.00;6.90;;;20.70;99.90;;;;;;5045782;28;20198;-84
2022/07/21 12:54:53;;;;;;;8.77;7.55;;;20.90;99.90;;;;;;5047919;28;20230;-84
2022/07/21 12:57:22;;;;;;;7.72;7.00;;;20.50;99.90;;;;;;5042039;28;20203;-84
2022/07/21 12:59:49;;;;;;;8.95;8.05;;;20.30;99.90;;;;;;5048746;28;20214;-84